createdAt,value
2019-03-23T00:00:11.283Z,73.30
2019-03-23T00:02:42.062Z,72.00
2019-03-23T00:05:12.392Z,71.90
2019-03-23T00:07:41.538Z,71.50
2019-03-23T00:10:10.737Z,71.40
2019-03-23T00:12:39.973Z,71.00
2019-03-23T00:15:10.648Z,71.40
2019-03-23T00:17:39.842Z,71.80
2019-03-23T00:20:09.010Z,71.90
2019-03-23T00:22:38.190Z,72.60
2019-03-23T00:25:07.343Z,73.00
2019-03-23T00:27:37.590Z,72.10
2019-03-23T00:30:08.290Z,72.10
2019-03-23T00:32:37.455Z,71.40
2019-03-23T00:35:06.808Z,71.50
2019-03-23T00:37:36.807Z,71.90
2019-03-23T00:40:09.531Z,72.50
2019-03-23T00:42:38.738Z,71.60
2019-03-23T00:45:08.890Z,71.40
2019-03-23T00:47:38.083Z,71.40
2019-03-23T00:50:08.183Z,71.40
2019-03-23T00:52:37.336Z,71.30
2019-03-23T00:55:07.050Z,71.50
2019-03-23T00:57:36.216Z,71.50
2019-03-23T01:00:10.664Z,71.40
2019-03-23T01:02:41.695Z,71.60
2019-03-23T01:05:10.805Z,71.70
2019-03-23T01:07:39.995Z,71.60
2019-03-23T01:10:10.604Z,71.70
2019-03-23T01:12:39.764Z,72.00
2019-03-23T01:15:11.527Z,71.90
2019-03-23T01:17:40.688Z,71.30
2019-03-23T01:20:11.208Z,71.80
2019-03-23T01:22:40.440Z,71.60
2019-03-23T01:25:10.353Z,71.50
2019-03-23T01:27:39.529Z,71.70
2019-03-23T01:30:13.750Z,71.40
2019-03-23T01:32:42.987Z,71.40
2019-03-23T01:35:12.214Z,72.20
2019-03-23T01:37:41.429Z,71.20
2019-03-23T01:40:10.592Z,71.10
2019-03-23T01:42:39.775Z,71.20
2019-03-23T01:45:11.784Z,71.20
2019-03-23T01:47:41.019Z,72.70
2019-03-23T01:50:11.295Z,73.50
2019-03-23T01:52:40.487Z,73.70
2019-03-23T01:55:10.723Z,73.40
2019-03-23T01:57:39.899Z,74.10
2019-03-23T02:00:11.199Z,74.30
2019-03-23T02:02:40.390Z,73.20
2019-03-23T02:05:09.543Z,73.50
2019-03-23T02:07:38.727Z,73.20
2019-03-23T02:10:10.087Z,72.10
2019-03-23T02:12:39.352Z,72.20
2019-03-23T02:15:10.233Z,72.80
2019-03-23T02:17:40.390Z,72.70
2019-03-23T02:20:11.423Z,72.90
2019-03-23T02:22:40.666Z,72.70
2019-03-23T02:25:09.815Z,72.30
2019-03-23T02:27:38.965Z,73.00
2019-03-23T02:30:10.283Z,72.20
2019-03-23T02:32:39.552Z,72.10
2019-03-23T02:35:08.942Z,72.30
2019-03-23T02:37:38.345Z,73.40
2019-03-23T02:40:10.257Z,73.10
2019-03-23T02:42:39.424Z,72.70
2019-03-23T02:45:10.290Z,73.20
2019-03-23T02:47:39.513Z,72.90
2019-03-23T02:50:09.760Z,72.80
2019-03-23T02:52:38.983Z,73.10
2019-03-23T02:55:09.330Z,73.30
2019-03-23T02:57:38.565Z,73.60
2019-03-23T03:00:15.094Z,73.60
2019-03-23T03:02:44.445Z,73.40
2019-03-23T03:05:13.635Z,73.50
2019-03-23T03:07:43.813Z,73.90
2019-03-23T03:10:22.346Z,73.80
2019-03-23T03:12:51.505Z,73.70
2019-03-23T03:15:20.710Z,74.10
2019-03-23T03:17:49.897Z,74.00
2019-03-23T03:20:19.136Z,74.60
2019-03-23T03:22:48.333Z,74.30
2019-03-23T03:25:17.537Z,73.90
2019-03-23T03:27:46.973Z,73.80
2019-03-23T03:30:16.129Z,73.60
2019-03-23T03:32:45.347Z,73.60
2019-03-23T03:35:14.562Z,73.80
2019-03-23T03:37:56.024Z,73.60
2019-03-23T03:40:14.671Z,73.70
2019-03-23T03:42:43.885Z,74.10
2019-03-23T03:45:18.881Z,74.00
2019-03-23T03:47:48.033Z,74.20
2019-03-23T03:50:17.230Z,74.50
2019-03-23T03:52:46.396Z,75.00
2019-03-23T03:55:15.556Z,74.90
2019-03-23T03:57:45.855Z,75.10
2019-03-23T04:00:15.035Z,75.10
2019-03-23T04:02:44.214Z,75.40
2019-03-23T04:05:14.471Z,75.60
2019-03-23T04:07:43.704Z,75.90
2019-03-23T04:10:12.970Z,76.10
2019-03-23T04:12:42.180Z,75.90
2019-03-23T04:15:11.348Z,76.00
2019-03-23T04:17:40.614Z,76.00
2019-03-23T04:20:11.311Z,76.20
2019-03-23T04:22:40.486Z,76.80
2019-03-23T04:25:10.520Z,76.30
2019-03-23T04:27:39.721Z,76.20
2019-03-23T04:30:10.573Z,76.30
2019-03-23T04:32:40.956Z,76.30
2019-03-23T04:35:10.123Z,76.30
2019-03-23T04:37:39.451Z,76.30
2019-03-23T04:40:10.656Z,76.40
2019-03-23T04:42:39.913Z,76.00
2019-03-23T04:45:10.016Z,76.10
2019-03-23T04:47:40.167Z,76.40
2019-03-23T04:50:10.667Z,76.50
2019-03-23T04:52:39.851Z,76.60
2019-03-23T04:55:12.616Z,76.60
2019-03-23T04:57:41.882Z,76.70
2019-03-23T05:00:18.728Z,76.90
2019-03-23T05:02:47.903Z,76.80
2019-03-23T05:05:18.212Z,77.00
2019-03-23T05:07:47.461Z,77.10
2019-03-23T05:10:17.317Z,77.20
2019-03-23T05:12:46.607Z,77.30
2019-03-23T05:15:16.487Z,78.00
2019-03-23T05:17:45.752Z,77.00
2019-03-23T05:20:31.734Z,76.90
2019-03-23T05:23:00.987Z,76.60
2019-03-23T05:25:30.314Z,76.60
2019-03-23T05:27:59.494Z,76.30
2019-03-23T05:30:28.674Z,76.60
2019-03-23T05:32:57.911Z,76.40
2019-03-23T05:35:27.107Z,76.50
2019-03-23T05:37:56.264Z,76.30
2019-03-23T05:40:25.528Z,76.20
2019-03-23T05:42:54.748Z,76.50
2019-03-23T05:45:24.199Z,76.40
2019-03-23T05:47:53.361Z,76.30
2019-03-23T05:50:22.576Z,75.90
2019-03-23T05:52:51.733Z,75.90
2019-03-23T05:55:20.917Z,75.60
2019-03-23T05:57:50.085Z,75.50
2019-03-23T06:00:20.353Z,75.10
2019-03-23T06:02:49.527Z,75.00
2019-03-23T06:05:18.677Z,74.70
2019-03-23T06:07:47.899Z,74.40
2019-03-23T06:10:18.123Z,74.40
2019-03-23T06:12:47.325Z,73.90
2019-03-23T06:15:16.497Z,73.60
2019-03-23T06:17:45.728Z,73.20
2019-03-23T06:20:14.897Z,72.70
2019-03-23T06:22:44.120Z,72.40
2019-03-23T06:25:13.315Z,72.30
2019-03-23T06:27:42.485Z,72.00
2019-03-23T06:30:11.816Z,71.70
2019-03-23T06:32:40.962Z,72.00
2019-03-23T06:35:10.225Z,71.40
2019-03-23T06:37:39.478Z,70.90
2019-03-23T06:40:10.188Z,70.50
2019-03-23T06:42:40.422Z,70.20
2019-03-23T06:45:10.855Z,69.40
2019-03-23T06:47:40.012Z,69.00
2019-03-23T06:50:10.319Z,68.70
2019-03-23T06:52:39.543Z,68.10
2019-03-23T06:55:09.121Z,67.80
2019-03-23T06:57:38.389Z,67.50
2019-03-23T07:00:13.289Z,67.10
2019-03-23T07:02:42.482Z,66.30
2019-03-23T07:05:11.639Z,65.90
2019-03-23T07:07:40.936Z,65.30
2019-03-23T07:10:11.836Z,64.70
2019-03-23T07:12:41.093Z,64.20
2019-03-23T07:15:19.434Z,63.80
2019-03-23T07:17:42.273Z,63.50
2019-03-23T07:20:12.973Z,62.90
2019-03-23T07:22:44.187Z,62.50
2019-03-23T07:25:13.085Z,61.40
2019-03-23T07:27:42.259Z,61.20
2019-03-23T07:30:13.758Z,60.60
2019-03-23T07:32:43.017Z,60.10
2019-03-23T07:35:12.237Z,59.60
2019-03-23T07:37:41.688Z,58.60
2019-03-23T07:40:12.052Z,58.20
2019-03-23T07:42:41.450Z,57.70
2019-03-23T07:45:13.944Z,57.20
2019-03-23T07:47:43.238Z,56.50
2019-03-23T07:50:14.500Z,56.10
2019-03-23T07:52:43.738Z,55.50
2019-03-23T07:55:16.190Z,55.30
2019-03-23T07:57:45.373Z,55.10
2019-03-23T08:00:20.654Z,54.30
2019-03-23T08:02:49.924Z,53.60
2019-03-23T08:05:19.144Z,52.70
2019-03-23T08:07:48.310Z,52.00
2019-03-23T08:10:23.623Z,50.00
2019-03-23T08:12:52.850Z,46.10
2019-03-23T08:15:22.041Z,40.80
2019-03-23T08:17:51.201Z,37.50
2019-03-23T08:20:20.450Z,37.10
2019-03-23T08:22:49.712Z,38.30
2019-03-23T08:25:18.893Z,39.60
2019-03-23T08:27:48.071Z,40.90
2019-03-23T08:30:17.618Z,40.50
2019-03-23T08:32:46.843Z,40.20
2019-03-23T08:35:16.048Z,37.90
2019-03-23T08:37:45.201Z,32.90
2019-03-23T08:40:14.397Z,29.40
2019-03-23T08:42:43.577Z,27.80
2019-03-23T08:45:12.763Z,25.40
2019-03-23T08:47:41.997Z,24.50
2019-03-23T08:50:11.213Z,22.70
2019-03-23T08:52:40.423Z,21.40
2019-03-23T08:55:09.664Z,20.60
2019-03-23T08:57:41.263Z,19.80
2019-03-23T09:00:11.893Z,20.10
2019-03-23T09:02:41.137Z,20.90
2019-03-23T09:05:10.300Z,20.60
2019-03-23T09:07:39.495Z,20.50
2019-03-23T09:10:09.133Z,20.80
2019-03-23T09:12:38.325Z,20.60
2019-03-23T09:15:08.954Z,20.50
2019-03-23T09:17:38.166Z,20.00
2019-03-23T09:20:09.674Z,20.20
2019-03-23T09:22:38.901Z,21.20
2019-03-23T09:25:08.084Z,19.90
2019-03-23T09:27:37.364Z,19.50
2019-03-23T09:30:11.483Z,19.90
2019-03-23T09:32:40.643Z,20.30
2019-03-23T09:35:10.902Z,19.90
2019-03-23T09:37:40.052Z,18.80
2019-03-23T09:40:11.092Z,18.80
2019-03-23T09:42:40.371Z,18.80
2019-03-23T09:45:09.562Z,18.50
2019-03-23T09:47:38.804Z,18.90
2019-03-23T09:50:09.935Z,19.00
2019-03-23T09:52:39.175Z,18.80
2019-03-23T09:55:08.372Z,18.70
2019-03-23T09:57:37.554Z,18.40
2019-03-23T10:00:11.458Z,18.00
2019-03-23T10:02:40.627Z,17.80
2019-03-23T10:05:09.996Z,17.40
2019-03-23T10:07:39.658Z,16.90
2019-03-23T10:10:08.887Z,16.40
2019-03-23T10:12:38.104Z,17.20
2019-03-23T10:15:07.672Z,17.00
2019-03-23T10:17:37.087Z,17.50
2019-03-23T10:20:06.837Z,17.90
2019-03-23T10:22:37.683Z,18.40
2019-03-23T10:25:06.865Z,19.90
2019-03-23T10:27:36.041Z,19.80
2019-03-23T10:30:07.670Z,19.10
2019-03-23T10:32:36.957Z,19.30
2019-03-23T10:35:08.145Z,18.40
2019-03-23T10:37:37.378Z,18.60
2019-03-23T10:40:07.895Z,17.80
2019-03-23T10:42:37.138Z,17.70
2019-03-23T10:45:08.206Z,17.00
2019-03-23T10:47:37.603Z,17.70
2019-03-23T10:50:07.081Z,17.60
2019-03-23T10:52:37.914Z,17.70
2019-03-23T10:55:07.137Z,17.10
2019-03-23T10:57:36.314Z,16.50
2019-03-23T11:00:08.074Z,16.00
2019-03-23T11:02:37.933Z,15.60
2019-03-23T11:05:07.626Z,15.30
2019-03-23T11:07:36.803Z,15.60
2019-03-23T11:10:13.685Z,16.10
2019-03-23T11:12:43.002Z,17.60
2019-03-23T11:15:12.186Z,18.10
2019-03-23T11:17:41.520Z,17.20
2019-03-23T11:20:12.234Z,16.50
2019-03-23T11:22:41.398Z,15.90
2019-03-23T11:25:10.587Z,15.50
2019-03-23T11:27:39.753Z,16.00
2019-03-23T11:30:11.755Z,16.40
2019-03-23T11:32:40.979Z,16.70
2019-03-23T11:35:10.226Z,16.60
2019-03-23T11:37:39.882Z,16.90
2019-03-23T11:40:10.574Z,17.30
2019-03-23T11:42:49.377Z,16.90
2019-03-23T11:45:11.197Z,16.90
2019-03-23T11:47:40.362Z,16.40
2019-03-23T11:50:11.502Z,15.50
2019-03-23T11:52:40.676Z,15.90
2019-03-23T11:55:10.667Z,16.40
2019-03-23T11:57:39.897Z,16.30
2019-03-23T12:00:12.181Z,16.30
2019-03-23T12:02:41.335Z,15.10
2019-03-23T12:05:10.609Z,15.00
2019-03-23T12:07:39.772Z,15.40
2019-03-23T12:10:11.192Z,15.00
2019-03-23T12:12:41.461Z,14.20
2019-03-23T12:15:11.989Z,13.90
2019-03-23T12:17:41.156Z,13.80
2019-03-23T12:20:10.638Z,15.00
2019-03-23T12:22:39.915Z,16.90
2019-03-23T12:25:09.348Z,16.20
2019-03-23T12:27:38.596Z,16.20
2019-03-23T12:30:11.182Z,16.00
2019-03-23T12:32:40.357Z,16.30
2019-03-23T12:35:09.508Z,15.90
2019-03-23T12:37:38.735Z,15.40
2019-03-23T12:40:08.675Z,16.20
2019-03-23T12:42:37.855Z,15.90
2019-03-23T12:45:07.750Z,16.60
2019-03-23T12:47:36.942Z,16.40
2019-03-23T12:50:07.243Z,16.40
2019-03-23T12:52:36.425Z,16.40
2019-03-23T12:55:07.160Z,16.60
2019-03-23T12:57:36.434Z,16.30
2019-03-23T13:00:08.603Z,16.20
2019-03-23T13:02:37.778Z,16.10
2019-03-23T13:05:13.248Z,15.90
2019-03-23T13:07:43.024Z,15.90
2019-03-23T13:10:13.166Z,15.50
2019-03-23T13:12:42.419Z,15.50
2019-03-23T13:15:13.514Z,15.10
2019-03-23T13:17:43.813Z,15.00
2019-03-23T13:20:13.559Z,14.90
2019-03-23T13:22:43.959Z,14.90
2019-03-23T13:25:13.123Z,15.70
2019-03-23T13:27:42.404Z,15.60
2019-03-23T13:30:17.885Z,15.70
2019-03-23T13:32:47.081Z,15.80
2019-03-23T13:35:16.238Z,16.20
2019-03-23T13:37:45.483Z,16.40
2019-03-23T13:40:14.658Z,16.40
2019-03-23T13:42:43.834Z,16.20
2019-03-23T13:45:13.140Z,16.20
2019-03-23T13:47:42.391Z,16.10
2019-03-23T13:50:11.647Z,15.60
2019-03-23T13:52:40.870Z,16.20
2019-03-23T13:55:13.331Z,16.40
2019-03-23T13:57:42.558Z,16.20
2019-03-23T14:00:11.749Z,16.90
2019-03-23T14:02:40.983Z,16.80
2019-03-23T14:05:16.144Z,16.90
2019-03-23T14:07:42.060Z,16.90
2019-03-23T14:10:11.300Z,17.50
2019-03-23T14:12:40.546Z,17.70
2019-03-23T14:15:09.746Z,16.80
2019-03-23T14:17:38.982Z,17.10
2019-03-23T14:20:08.212Z,17.40
2019-03-23T14:22:37.412Z,16.90
2019-03-23T14:25:06.855Z,16.60
2019-03-23T14:27:36.051Z,16.10
2019-03-23T14:30:07.556Z,15.60
2019-03-23T14:32:36.740Z,15.40
2019-03-23T14:35:06.268Z,15.60
2019-03-23T14:37:35.547Z,16.00
2019-03-23T14:40:06.324Z,15.80
2019-03-23T14:42:36.033Z,15.70
2019-03-23T14:45:07.931Z,16.30
2019-03-23T14:47:37.149Z,16.00
2019-03-23T14:50:06.468Z,16.00
2019-03-23T14:52:35.617Z,16.80
2019-03-23T14:55:05.940Z,18.50
2019-03-23T14:57:35.110Z,19.70
2019-03-23T15:00:06.986Z,21.80
2019-03-23T15:02:36.215Z,22.70
2019-03-23T15:05:07.034Z,22.90
2019-03-23T15:07:37.358Z,23.60
2019-03-23T15:10:09.250Z,24.30
2019-03-23T15:12:38.417Z,24.60
2019-03-23T15:15:07.912Z,25.20
2019-03-23T15:17:37.077Z,25.50
2019-03-23T15:20:06.597Z,25.60
2019-03-23T15:22:35.757Z,25.80
2019-03-23T15:25:05.956Z,25.40
2019-03-23T15:27:35.158Z,25.20
2019-03-23T15:30:08.599Z,26.20
2019-03-23T15:32:37.832Z,25.80
2019-03-23T15:35:07.263Z,25.50
2019-03-23T15:37:36.446Z,25.90
2019-03-23T15:40:06.964Z,25.60
2019-03-23T15:42:36.224Z,25.30
2019-03-23T15:45:08.255Z,25.70
2019-03-23T15:47:37.497Z,27.20
2019-03-23T15:50:07.011Z,27.70
2019-03-23T15:52:36.205Z,27.60
2019-03-23T15:55:08.196Z,27.80
2019-03-23T15:57:37.450Z,28.40
2019-03-23T16:00:09.018Z,28.40
2019-03-23T16:02:38.323Z,28.60
2019-03-23T16:05:08.623Z,30.00
2019-03-23T16:07:38.030Z,30.60
2019-03-23T16:10:07.803Z,30.90
2019-03-23T16:12:38.200Z,31.30
2019-03-23T16:15:09.855Z,31.60
2019-03-23T16:17:39.045Z,31.90
2019-03-23T16:20:12.039Z,31.90
2019-03-23T16:22:41.418Z,32.00
2019-03-23T16:25:10.673Z,32.20
2019-03-23T16:27:39.947Z,32.70
2019-03-23T16:30:10.768Z,32.30
2019-03-23T16:32:40.145Z,32.40
2019-03-23T16:35:10.963Z,32.60
2019-03-23T16:37:40.141Z,32.40
2019-03-23T16:40:09.417Z,32.00
2019-03-23T16:42:45.286Z,32.30
2019-03-23T16:45:09.777Z,32.50
2019-03-23T16:47:39.005Z,32.60
2019-03-23T16:50:08.257Z,32.40
2019-03-23T16:52:38.171Z,32.50
2019-03-23T16:55:08.498Z,33.20
2019-03-23T16:57:37.690Z,33.00
2019-03-23T17:00:09.511Z,33.10
2019-03-23T17:02:38.739Z,33.30
2019-03-23T17:05:08.072Z,33.60
2019-03-23T17:07:37.263Z,34.00
2019-03-23T17:10:07.327Z,34.10
2019-03-23T17:12:36.606Z,34.40
2019-03-23T17:15:07.335Z,34.80
2019-03-23T17:17:37.484Z,35.00
2019-03-23T17:20:08.291Z,35.50
2019-03-23T17:22:37.450Z,35.60
2019-03-23T17:25:06.817Z,35.80
2019-03-23T17:27:36.031Z,36.50
2019-03-23T17:30:07.209Z,37.20
2019-03-23T17:32:39.213Z,38.50
2019-03-23T17:35:08.822Z,38.50
2019-03-23T17:37:38.090Z,39.10
2019-03-23T17:40:07.917Z,39.40
2019-03-23T17:42:37.086Z,39.40
2019-03-23T17:45:09.886Z,39.80
2019-03-23T17:47:39.311Z,39.80
2019-03-23T17:50:08.467Z,40.30
2019-03-23T17:52:40.663Z,40.30
2019-03-23T17:55:09.851Z,40.70
2019-03-23T17:57:39.127Z,40.80
2019-03-23T18:00:08.816Z,40.90
2019-03-23T18:02:38.244Z,41.00
2019-03-23T18:05:08.452Z,41.30
2019-03-23T18:07:37.781Z,41.50
2019-03-23T18:10:09.142Z,41.60
2019-03-23T18:12:38.535Z,41.90
2019-03-23T18:15:09.342Z,42.20
2019-03-23T18:17:38.567Z,42.50
2019-03-23T18:20:07.763Z,42.80
2019-03-23T18:22:36.987Z,43.20
2019-03-23T18:25:06.412Z,43.60
2019-03-23T18:27:35.615Z,43.50
2019-03-23T18:30:34.352Z,44.00
2019-03-23T18:33:04.723Z,44.20
2019-03-23T18:35:33.897Z,44.60
2019-03-23T18:38:03.325Z,44.60
2019-03-23T18:40:33.347Z,44.60
2019-03-23T18:43:02.531Z,45.00
2019-03-23T18:45:31.860Z,45.30
2019-03-23T18:48:01.120Z,45.60
2019-03-23T18:50:30.384Z,46.00
2019-03-23T18:52:59.803Z,46.50
2019-03-23T18:55:29.431Z,46.60
2019-03-23T18:57:59.170Z,46.90
2019-03-23T19:00:37.779Z,46.70
2019-03-23T19:03:07.188Z,46.60
2019-03-23T19:05:36.902Z,47.20
2019-03-23T19:08:06.291Z,47.30
2019-03-23T19:10:36.052Z,47.80
2019-03-23T19:13:06.243Z,48.30
2019-03-23T19:15:35.467Z,48.50
2019-03-23T19:18:04.706Z,48.90
2019-03-23T19:20:33.908Z,49.00
2019-03-23T19:23:03.073Z,49.20
2019-03-23T19:25:32.236Z,49.10
2019-03-23T19:28:01.453Z,49.30
2019-03-23T19:30:30.682Z,49.50
2019-03-23T19:33:00.124Z,50.00
2019-03-23T19:35:29.398Z,50.80
2019-03-23T19:37:59.129Z,50.90
2019-03-23T19:40:28.452Z,51.00
2019-03-23T19:42:59.563Z,51.50
2019-03-23T19:45:28.572Z,51.00
2019-03-23T19:47:57.739Z,51.50
2019-03-23T19:50:26.943Z,51.60
2019-03-23T19:52:56.168Z,51.60
2019-03-23T19:55:25.950Z,52.20
2019-03-23T19:57:55.118Z,53.00
2019-03-23T20:00:24.313Z,53.70
2019-03-23T20:02:53.550Z,54.30
2019-03-23T20:05:22.780Z,54.60
2019-03-23T20:07:52.089Z,54.80
2019-03-23T20:10:21.304Z,54.90
2019-03-23T20:12:50.556Z,55.40
2019-03-23T20:15:19.791Z,55.70
2019-03-23T20:17:48.995Z,56.10
2019-03-23T20:20:19.957Z,56.00
2019-03-23T20:22:49.548Z,56.30
2019-03-23T20:25:18.870Z,56.50
2019-03-23T20:27:48.019Z,56.50
2019-03-23T20:30:17.743Z,57.30
2019-03-23T20:32:47.095Z,56.80
2019-03-23T20:35:16.317Z,57.10
2019-03-23T20:37:45.484Z,57.40
2019-03-23T20:40:14.696Z,57.80
2019-03-23T20:42:44.061Z,58.10
2019-03-23T20:45:14.919Z,58.00
2019-03-23T20:47:44.256Z,58.90
2019-03-23T20:50:13.444Z,58.90
2019-03-23T20:52:42.683Z,59.60
2019-03-23T20:55:26.210Z,59.80
2019-03-23T20:57:55.552Z,60.00
2019-03-23T21:00:25.810Z,60.20
2019-03-23T21:02:55.076Z,60.40
2019-03-23T21:05:33.197Z,60.60
2019-03-23T21:07:55.353Z,60.80
2019-03-23T21:10:24.552Z,61.10
2019-03-23T21:12:53.807Z,61.40
2019-03-23T21:15:22.992Z,61.90
2019-03-23T21:17:52.301Z,62.30
2019-03-23T21:20:21.480Z,62.10
2019-03-23T21:22:50.696Z,62.40
2019-03-23T21:25:20.084Z,62.60
2019-03-23T21:27:49.350Z,62.70
2019-03-23T21:30:19.741Z,62.60
2019-03-23T21:32:49.010Z,62.90
2019-03-23T21:35:18.455Z,63.20
2019-03-23T21:37:47.715Z,63.70
2019-03-23T21:40:16.871Z,63.50
2019-03-23T21:42:46.095Z,63.80
2019-03-23T21:45:15.402Z,63.80
2019-03-23T21:47:44.546Z,64.10
2019-03-23T21:50:13.799Z,64.30
2019-03-23T21:52:42.951Z,64.50
2019-03-23T21:55:12.123Z,64.80
2019-03-23T21:57:41.442Z,64.90
2019-03-23T22:00:10.908Z,65.30
2019-03-23T22:02:40.773Z,65.10
2019-03-23T22:05:09.965Z,65.60
2019-03-23T22:07:39.156Z,65.90
2019-03-23T22:10:09.161Z,65.90
2019-03-23T22:12:38.399Z,66.20
2019-03-23T22:15:08.527Z,67.50
2019-03-23T22:17:37.706Z,67.70
2019-03-23T22:20:08.497Z,67.70
2019-03-23T22:22:37.749Z,67.40
2019-03-23T22:25:07.191Z,67.90
2019-03-23T22:27:37.290Z,68.10
2019-03-23T22:30:11.621Z,67.90
2019-03-23T22:32:40.873Z,67.80
2019-03-23T22:35:10.085Z,68.20
2019-03-23T22:37:39.341Z,68.40
2019-03-23T22:40:09.151Z,68.90
2019-03-23T22:42:38.403Z,69.10
2019-03-23T22:45:10.353Z,69.60
2019-03-23T22:47:39.619Z,69.90
2019-03-23T22:50:09.025Z,70.00
2019-03-23T22:52:38.203Z,69.40
2019-03-23T22:55:07.524Z,69.10
2019-03-23T22:57:36.703Z,69.30
2019-03-23T23:00:08.644Z,69.60
2019-03-23T23:02:37.994Z,70.00
2019-03-23T23:05:07.563Z,70.20
2019-03-23T23:07:36.807Z,70.40
2019-03-23T23:10:08.900Z,70.40
2019-03-23T23:12:38.083Z,70.10
2019-03-23T23:15:08.239Z,70.80
2019-03-23T23:17:37.488Z,71.50
2019-03-23T23:20:07.297Z,73.20
2019-03-23T23:22:38.080Z,72.40
2019-03-23T23:25:07.733Z,72.10
2019-03-23T23:27:37.285Z,72.10
2019-03-23T23:30:10.068Z,72.20
2019-03-23T23:32:39.390Z,72.30
2019-03-23T23:35:09.092Z,71.70
2019-03-23T23:37:38.274Z,71.60
2019-03-23T23:40:07.794Z,71.80
2019-03-23T23:42:36.952Z,72.70
2019-03-23T23:45:15.486Z,72.30
2019-03-23T23:47:38.920Z,72.60
2019-03-23T23:50:09.340Z,73.10
2019-03-23T23:52:38.581Z,73.10
2019-03-23T23:55:07.770Z,73.40
2019-03-23T23:57:37.028Z,73.60
